createdAt,value
2018-03-02T00:01:46.260Z,54.83
2018-03-02T00:04:13.092Z,54.20
2018-03-02T00:06:39.883Z,56.80
2018-03-02T00:09:06.628Z,55.25
2018-03-02T00:11:33.467Z,55.30
2018-03-02T00:14:01.183Z,57.55
2018-03-02T00:16:27.931Z,57.55
2018-03-02T00:18:54.777Z,55.22
2018-03-02T00:21:21.511Z,58.67
2018-03-02T00:23:48.285Z,55.78
2018-03-02T00:26:15.010Z,55.20
2018-03-02T00:28:41.733Z,57.03
2018-03-02T00:31:08.476Z,54.53
2018-03-02T00:33:35.249Z,56.95
2018-03-02T00:36:02.028Z,55.63
2018-03-02T00:38:28.838Z,56.53
2018-03-02T00:40:55.579Z,55.60
2018-03-02T00:43:22.331Z,56.35
2018-03-02T00:45:49.071Z,55.65
2018-03-02T00:48:15.860Z,52.42
2018-03-02T00:50:42.607Z,55.12
2018-03-02T00:53:09.368Z,57.25
2018-03-02T00:55:36.160Z,55.63
2018-03-02T00:58:02.889Z,55.22
2018-03-02T01:00:29.643Z,57.10
2018-03-02T01:02:56.406Z,54.67
2018-03-02T01:05:23.155Z,54.58
2018-03-02T01:07:49.896Z,51.33
2018-03-02T01:10:16.622Z,57.30
2018-03-02T01:12:43.374Z,56.00
2018-03-02T01:15:10.159Z,53.63
2018-03-02T01:17:36.878Z,56.33
2018-03-02T01:20:03.651Z,55.35
2018-03-02T01:22:30.380Z,57.65
2018-03-02T01:24:57.140Z,54.60
2018-03-02T01:27:23.886Z,55.78
2018-03-02T01:29:50.614Z,56.67
2018-03-02T01:32:17.407Z,58.58
2018-03-02T01:34:44.126Z,56.88
2018-03-02T01:37:10.887Z,56.95
2018-03-02T01:39:37.637Z,56.17
2018-03-02T01:42:04.403Z,54.28
2018-03-02T01:44:31.224Z,56.20
2018-03-02T01:46:57.952Z,58.67
2018-03-02T01:49:24.721Z,56.20
2018-03-02T01:51:51.445Z,56.05
2018-03-02T01:54:18.171Z,56.97
2018-03-02T01:56:44.965Z,57.35
2018-03-02T01:59:11.709Z,58.28
2018-03-02T02:01:38.505Z,59.08
2018-03-02T02:04:05.255Z,56.15
2018-03-02T02:06:32.010Z,59.95
2018-03-02T02:08:58.774Z,57.78
2018-03-02T02:11:25.510Z,54.88
2018-03-02T02:13:52.254Z,55.33
2018-03-02T02:16:18.992Z,56.97
2018-03-02T02:18:45.752Z,54.33
2018-03-02T02:21:12.527Z,55.38
2018-03-02T02:23:39.271Z,59.85
2018-03-02T02:26:06.016Z,55.55
2018-03-02T02:28:32.735Z,58.20
2018-03-02T02:30:59.472Z,54.33
2018-03-02T02:33:26.213Z,55.97
2018-03-02T02:35:52.933Z,58.30
2018-03-02T02:38:19.710Z,60.92
2018-03-02T02:40:46.436Z,56.88
2018-03-02T02:43:13.191Z,57.22
2018-03-02T02:45:39.946Z,57.88
2018-03-02T02:48:06.690Z,57.75
2018-03-02T02:50:33.444Z,59.60
2018-03-02T02:53:00.185Z,58.55
2018-03-02T02:55:26.920Z,61.30
2018-03-02T02:57:53.666Z,61.67
2018-03-02T03:00:20.407Z,56.65
2018-03-02T03:02:47.142Z,55.58
2018-03-02T03:05:13.890Z,58.42
2018-03-02T03:07:40.610Z,62.40
2018-03-02T03:10:07.363Z,60.22
2018-03-02T03:12:34.086Z,57.58
2018-03-02T03:15:00.850Z,59.47
2018-03-02T03:17:27.594Z,59.30
2018-03-02T03:19:54.348Z,58.58
2018-03-02T03:22:21.086Z,56.88
2018-03-02T03:24:47.829Z,61.75
2018-03-02T03:27:14.602Z,57.65
2018-03-02T03:29:41.348Z,59.42
2018-03-02T03:32:08.085Z,57.17
2018-03-02T03:34:34.845Z,57.58
2018-03-02T03:37:01.567Z,62.70
2018-03-02T03:39:28.290Z,55.72
2018-03-02T03:41:55.073Z,57.40
2018-03-02T03:44:21.803Z,59.20
2018-03-02T03:46:48.540Z,59.65
2018-03-02T03:49:15.273Z,59.47
2018-03-02T03:51:42.029Z,55.17
2018-03-02T03:54:08.786Z,60.90
2018-03-02T03:56:35.499Z,55.85
2018-03-02T03:59:02.260Z,58.35
2018-03-02T04:01:29.006Z,60.72
2018-03-02T04:03:55.742Z,59.08
2018-03-02T04:06:22.480Z,60.75
2018-03-02T04:08:49.202Z,62.65
2018-03-02T04:11:15.965Z,59.38
2018-03-02T04:13:42.707Z,59.05
2018-03-02T04:16:09.427Z,60.03
2018-03-02T04:18:36.152Z,61.20
2018-03-02T04:21:02.918Z,59.78
2018-03-02T04:23:29.641Z,60.78
2018-03-02T04:25:56.438Z,59.22
2018-03-02T04:28:23.193Z,58.00
2018-03-02T04:30:49.942Z,58.60
2018-03-02T04:33:16.707Z,62.17
2018-03-02T04:35:43.416Z,56.85
2018-03-02T04:38:10.152Z,59.85
2018-03-02T04:40:36.952Z,57.72
2018-03-02T04:43:03.789Z,56.28
2018-03-02T04:45:30.582Z,59.10
2018-03-02T04:47:57.319Z,59.03
2018-03-02T04:50:24.122Z,58.87
2018-03-02T04:52:50.862Z,59.17
2018-03-02T04:55:17.609Z,58.60
2018-03-02T04:57:44.385Z,61.55
2018-03-02T05:00:11.145Z,59.92
2018-03-02T05:02:37.907Z,56.00
2018-03-02T05:05:04.674Z,56.15
2018-03-02T05:07:31.664Z,56.72
2018-03-02T05:09:58.410Z,57.05
2018-03-02T05:12:25.150Z,56.45
2018-03-02T05:14:52.004Z,60.55
2018-03-02T05:17:18.730Z,58.40
2018-03-02T05:19:45.469Z,55.85
2018-03-02T05:22:12.277Z,55.47
2018-03-02T05:24:39.007Z,61.30
2018-03-02T05:27:05.811Z,59.63
2018-03-02T05:29:32.610Z,60.50
2018-03-02T05:31:59.334Z,59.78
2018-03-02T05:34:26.096Z,64.97
2018-03-02T05:36:52.824Z,64.60
2018-03-02T05:39:19.572Z,59.78
2018-03-02T05:41:46.325Z,63.17
2018-03-02T05:44:13.082Z,58.17
2018-03-02T05:46:39.864Z,57.05
2018-03-02T05:49:06.583Z,59.33
2018-03-02T05:51:33.977Z,57.83
2018-03-02T05:54:00.803Z,57.25
2018-03-02T05:56:27.529Z,61.70
2018-03-02T05:58:54.501Z,58.50
2018-03-02T06:01:21.223Z,58.05
2018-03-02T06:03:47.973Z,60.50
2018-03-02T06:06:14.715Z,61.33
2018-03-02T06:08:41.455Z,59.50
2018-03-02T06:11:08.196Z,62.50
2018-03-02T06:13:35.874Z,58.92
2018-03-02T06:16:03.075Z,58.42
2018-03-02T06:18:29.856Z,59.13
2018-03-02T06:20:56.891Z,58.60
2018-03-02T06:23:23.637Z,57.62
2018-03-02T06:25:50.392Z,61.67
2018-03-02T06:28:17.238Z,53.80
2018-03-02T06:30:43.974Z,55.72
2018-03-02T06:33:10.728Z,59.65
2018-03-02T06:35:37.463Z,57.78
2018-03-02T06:38:04.202Z,63.78
2018-03-02T06:40:30.960Z,62.67
2018-03-02T06:42:58.608Z,57.85
2018-03-02T06:45:25.391Z,63.17
2018-03-02T06:47:52.108Z,62.62
2018-03-02T06:50:18.840Z,62.22
2018-03-02T06:52:45.603Z,58.63
2018-03-02T06:55:12.339Z,58.78
2018-03-02T06:57:39.227Z,60.80
2018-03-02T07:00:05.976Z,59.35
2018-03-02T07:02:32.741Z,55.67
2018-03-02T07:04:59.500Z,63.17
2018-03-02T07:07:26.230Z,58.87
2018-03-02T07:09:52.944Z,58.87
2018-03-02T07:12:19.729Z,58.30
2018-03-02T07:14:46.534Z,58.53
2018-03-02T07:17:13.309Z,60.88
2018-03-02T07:19:40.023Z,57.85
2018-03-02T07:22:06.766Z,57.38
2018-03-02T07:24:33.495Z,58.13
2018-03-02T07:27:00.230Z,58.63
2018-03-02T07:29:27.017Z,58.17
2018-03-02T07:31:53.728Z,54.72
2018-03-02T07:34:20.475Z,61.58
2018-03-02T07:36:47.258Z,59.47
2018-03-02T07:39:13.957Z,60.08
2018-03-02T07:41:40.693Z,55.17
2018-03-02T07:44:07.429Z,53.55
2018-03-02T07:46:34.144Z,54.17
2018-03-02T07:49:00.884Z,54.92
2018-03-02T07:51:27.617Z,54.17
2018-03-02T07:53:54.339Z,54.67
2018-03-02T07:56:22.731Z,55.85
2018-03-02T07:58:52.303Z,56.35
2018-03-02T08:01:19.262Z,54.20
2018-03-02T08:03:46.005Z,55.75
2018-03-02T08:06:12.717Z,55.47
2018-03-02T08:08:39.465Z,54.15
2018-03-02T08:11:06.188Z,53.28
2018-03-02T08:13:32.961Z,51.60
2018-03-02T08:15:59.668Z,56.00
2018-03-02T08:18:26.392Z,51.95
2018-03-02T08:20:53.122Z,56.03
2018-03-02T08:23:19.828Z,56.15
2018-03-02T08:25:46.560Z,53.38
2018-03-02T08:28:18.232Z,55.25
2018-03-02T08:30:45.024Z,52.08
2018-03-02T08:33:11.784Z,54.65
2018-03-02T08:35:41.448Z,49.70
2018-03-02T08:38:12.162Z,54.03
2018-03-02T08:40:38.881Z,50.15
2018-03-02T08:43:10.742Z,53.85
2018-03-02T08:45:38.382Z,54.10
2018-03-02T08:48:05.158Z,53.72
2018-03-02T08:50:31.904Z,50.25
2018-03-02T08:52:58.614Z,51.15
2018-03-02T08:55:25.351Z,52.10
2018-03-02T08:57:52.070Z,53.40
2018-03-02T09:00:24.930Z,50.97
2018-03-02T09:02:51.660Z,51.63
2018-03-02T09:05:18.501Z,50.97
2018-03-02T09:07:45.237Z,51.80
2018-03-02T09:10:11.946Z,57.45
2018-03-02T09:12:38.834Z,53.25
2018-03-02T09:15:05.607Z,54.17
2018-03-02T09:17:32.353Z,52.33
2018-03-02T09:19:59.084Z,54.50
2018-03-02T09:22:25.815Z,51.15
2018-03-02T09:24:52.566Z,58.65
2018-03-02T09:27:19.289Z,53.33
2018-03-02T09:29:46.052Z,55.03
2018-03-02T09:32:12.802Z,63.15
2018-03-02T09:34:39.542Z,54.60
2018-03-02T09:37:06.276Z,54.53
2018-03-02T09:39:33.055Z,53.35
2018-03-02T09:41:59.796Z,49.03
2018-03-02T09:44:26.524Z,51.95
2018-03-02T09:46:53.248Z,51.65
2018-03-02T09:49:20.006Z,50.88
2018-03-02T09:51:46.725Z,54.63
2018-03-02T09:54:13.497Z,51.22
2018-03-02T09:56:41.719Z,49.38
2018-03-02T09:59:08.522Z,51.65
2018-03-02T10:01:35.258Z,52.13
2018-03-02T10:04:01.977Z,54.88
2018-03-02T10:06:28.740Z,53.70
2018-03-02T10:08:55.499Z,55.12
2018-03-02T10:11:22.214Z,56.17
2018-03-02T10:13:49.247Z,52.60
2018-03-02T10:16:16.046Z,54.90
2018-03-02T10:18:42.791Z,56.05
2018-03-02T10:21:09.574Z,57.72
2018-03-02T10:23:38.577Z,56.33
2018-03-02T10:26:05.358Z,57.65
2018-03-02T10:28:32.148Z,57.92
2018-03-02T10:30:59.001Z,58.17
2018-03-02T10:33:25.742Z,55.75
2018-03-02T10:35:52.501Z,57.20
2018-03-02T10:38:19.248Z,59.80
2018-03-02T10:40:45.980Z,62.70
2018-03-02T10:43:12.699Z,56.65
2018-03-02T10:45:39.463Z,57.03
2018-03-02T10:48:06.193Z,59.78
2018-03-02T10:50:32.963Z,59.05
2018-03-02T10:52:59.694Z,54.55
2018-03-02T10:55:26.421Z,56.67
2018-03-02T10:57:53.162Z,57.17
2018-03-02T11:00:25.564Z,58.10
2018-03-02T11:02:56.324Z,59.05
2018-03-02T11:05:23.083Z,55.30
2018-03-02T11:07:49.851Z,56.28
2018-03-02T11:10:16.573Z,59.95
2018-03-02T11:12:43.321Z,56.92
2018-03-02T11:15:10.096Z,60.97
2018-03-02T11:17:36.821Z,56.90
2018-03-02T11:20:03.624Z,58.28
2018-03-02T11:22:30.373Z,57.55
2018-03-02T11:24:57.139Z,58.92
2018-03-02T11:27:23.882Z,56.50
2018-03-02T11:29:53.534Z,60.20
2018-03-02T11:32:20.259Z,61.08
2018-03-02T11:34:47.017Z,60.70
2018-03-02T11:37:13.738Z,59.53
2018-03-02T11:39:40.487Z,64.15
2018-03-02T11:42:07.244Z,58.42
2018-03-02T11:44:33.971Z,62.33
2018-03-02T11:47:00.724Z,64.62
2018-03-02T11:49:27.462Z,63.47
2018-03-02T11:51:54.210Z,57.80
2018-03-02T11:54:20.948Z,62.72
2018-03-02T11:56:49.383Z,57.03
2018-03-02T11:59:17.147Z,58.72
2018-03-02T12:01:46.702Z,63.72
2018-03-02T12:04:13.695Z,57.55
2018-03-02T12:06:46.202Z,60.83
2018-03-02T12:09:12.931Z,59.85
2018-03-02T12:11:39.700Z,64.43
2018-03-02T12:14:06.456Z,59.65
2018-03-02T12:16:33.294Z,63.80
2018-03-02T12:19:03.402Z,59.38
2018-03-02T12:21:30.188Z,62.78
2018-03-02T12:23:58.081Z,60.92
2018-03-02T12:26:30.651Z,60.50
2018-03-02T12:29:02.159Z,60.65
2018-03-02T12:34:36.436Z,62.58
2018-03-02T12:42:58.294Z,63.92
2018-03-02T12:48:27.350Z,58.92
2018-03-02T12:50:54.107Z,59.08
2018-03-02T12:53:20.854Z,60.35
2018-03-02T12:55:47.595Z,62.03
2018-03-02T12:58:14.406Z,65.55
2018-03-02T13:00:41.228Z,63.00
2018-03-02T13:03:07.973Z,63.60
2018-03-02T13:05:34.693Z,64.15
2018-03-02T13:08:01.459Z,61.10
2018-03-02T13:10:28.867Z,63.87
2018-03-02T13:12:55.594Z,62.13
2018-03-02T13:15:22.353Z,66.47
2018-03-02T13:17:49.088Z,64.93
2018-03-02T13:20:15.825Z,62.28
2018-03-02T13:22:42.567Z,60.97
2018-03-02T13:25:09.271Z,62.95
2018-03-02T13:27:41.868Z,61.17
2018-03-02T13:30:08.610Z,61.05
2018-03-02T13:32:35.354Z,62.95
2018-03-02T13:35:09.822Z,64.53
2018-03-02T13:37:36.585Z,61.40
2018-03-02T13:40:09.239Z,66.07
2018-03-02T13:42:35.976Z,59.60
2018-03-02T13:45:02.743Z,66.87
2018-03-02T13:47:48.128Z,64.65
2018-03-02T13:50:14.890Z,64.18
2018-03-02T13:52:41.613Z,65.82
2018-03-02T13:55:08.393Z,68.53
2018-03-02T13:57:41.071Z,64.43
2018-03-02T14:00:07.803Z,62.22
2018-03-02T14:02:40.234Z,64.25
2018-03-02T14:05:06.979Z,60.92
2018-03-02T14:07:33.721Z,59.60
2018-03-02T14:10:00.453Z,60.75
2018-03-02T14:12:27.183Z,59.97
2018-03-02T14:14:53.894Z,61.55
2018-03-02T14:17:20.640Z,65.25
2018-03-02T14:19:47.375Z,64.37
2018-03-02T14:22:14.148Z,63.33
2018-03-02T14:24:40.867Z,60.42
2018-03-02T14:27:07.611Z,59.70
2018-03-02T14:29:34.358Z,60.40
2018-03-02T14:32:01.114Z,61.50
2018-03-02T14:34:27.878Z,59.67
2018-03-02T14:36:54.601Z,62.58
2018-03-02T14:39:21.354Z,62.17
2018-03-02T14:41:48.071Z,61.55
2018-03-02T14:44:14.797Z,62.30
2018-03-02T14:46:41.531Z,59.25
2018-03-02T14:49:08.247Z,62.15
2018-03-02T14:51:35.033Z,58.67
2018-03-02T14:54:01.754Z,58.25
2018-03-02T14:56:28.513Z,60.63
2018-03-02T14:58:55.249Z,57.38
2018-03-02T15:01:21.999Z,59.42
2018-03-02T15:03:48.743Z,60.40
2018-03-02T15:06:15.500Z,60.45
2018-03-02T15:08:42.221Z,61.08
2018-03-02T15:11:09.009Z,65.65
2018-03-02T15:13:35.729Z,65.25
2018-03-02T15:16:02.491Z,59.85
2018-03-02T15:18:29.246Z,67.45
2018-03-02T15:20:55.987Z,61.50
2018-03-02T15:23:22.802Z,61.17
2018-03-02T15:25:49.534Z,57.97
2018-03-02T15:28:16.283Z,70.32
2018-03-02T15:30:42.988Z,60.72
2018-03-02T15:33:09.753Z,64.60
2018-03-02T15:35:36.502Z,56.37
2018-03-02T15:38:03.270Z,61.37
2018-03-02T15:40:30.001Z,59.88
2018-03-02T15:42:56.709Z,58.67
2018-03-02T15:45:23.450Z,62.10
2018-03-02T15:47:50.198Z,64.80
2018-03-02T15:50:16.956Z,58.50
2018-03-02T15:52:43.682Z,59.20
2018-03-02T15:55:10.472Z,61.17
2018-03-02T15:57:37.241Z,57.55
2018-03-02T16:00:03.989Z,57.80
2018-03-02T16:02:30.753Z,56.53
2018-03-02T16:04:57.521Z,59.90
2018-03-02T16:07:24.262Z,58.58
2018-03-02T16:09:50.973Z,54.03
2018-03-02T16:12:17.743Z,59.47
2018-03-02T16:14:44.476Z,59.10
2018-03-02T16:17:11.228Z,56.17
2018-03-02T16:19:38.000Z,59.47
2018-03-02T16:22:04.717Z,57.00
2018-03-02T16:24:31.448Z,58.42
2018-03-02T16:26:58.185Z,58.50
2018-03-02T16:29:24.893Z,61.42
2018-03-02T16:31:51.628Z,63.33
2018-03-02T16:34:18.369Z,60.15
2018-03-02T16:36:45.124Z,62.25
2018-03-02T16:39:11.854Z,63.60
2018-03-02T16:41:38.578Z,56.63
2018-03-02T16:44:05.359Z,61.28
2018-03-02T16:46:32.090Z,57.15
2018-03-02T16:48:58.888Z,58.70
2018-03-02T16:51:25.626Z,61.88
2018-03-02T16:53:52.342Z,61.70
2018-03-02T16:56:19.141Z,63.35
2018-03-02T16:58:45.860Z,63.17
2018-03-02T17:01:12.622Z,61.72
2018-03-02T17:03:39.363Z,66.75
2018-03-02T17:06:06.074Z,61.63
2018-03-02T17:08:32.859Z,64.85
2018-03-02T17:10:59.605Z,62.97
2018-03-02T17:13:26.338Z,59.67
2018-03-02T17:15:53.085Z,61.65
2018-03-02T17:18:19.851Z,61.78
2018-03-02T17:20:46.595Z,64.55
2018-03-02T17:23:13.345Z,65.78
2018-03-02T17:25:40.119Z,63.42
2018-03-02T17:28:06.837Z,63.95
2018-03-02T17:30:33.590Z,64.05
2018-03-02T17:33:00.317Z,60.55
2018-03-02T17:35:27.041Z,66.68
2018-03-02T17:37:53.804Z,63.10
2018-03-02T17:40:20.521Z,60.45
2018-03-02T17:42:47.283Z,60.97
2018-03-02T17:45:14.048Z,69.32
2018-03-02T17:47:40.807Z,65.60
2018-03-02T17:50:07.522Z,61.90
2018-03-02T17:52:34.283Z,66.85
2018-03-02T17:55:01.055Z,71.22
2018-03-02T17:57:27.774Z,64.95
2018-03-02T17:59:54.557Z,63.97
2018-03-02T18:02:21.273Z,68.37
2018-03-02T18:04:48.004Z,64.10
2018-03-02T18:07:14.747Z,63.63
2018-03-02T18:09:41.462Z,65.05
2018-03-02T18:12:08.223Z,69.05
2018-03-02T18:14:34.962Z,71.10
2018-03-02T18:17:01.707Z,66.05
2018-03-02T18:19:28.466Z,65.03
2018-03-02T18:21:55.206Z,67.70
2018-03-02T18:24:21.948Z,66.25
2018-03-02T18:26:48.693Z,67.78
2018-03-02T18:29:15.439Z,69.03
2018-03-02T18:31:42.182Z,62.28
2018-03-02T18:34:08.924Z,65.05
2018-03-02T18:36:35.682Z,65.28
2018-03-02T18:39:02.407Z,62.92
2018-03-02T18:41:29.176Z,66.62
2018-03-02T18:43:55.938Z,64.00
2018-03-02T18:46:22.680Z,62.80
2018-03-02T18:48:49.450Z,67.65
2018-03-02T18:51:16.200Z,61.22
2018-03-02T18:53:42.930Z,64.32
2018-03-02T18:56:10.071Z,62.17
2018-03-02T18:58:36.846Z,64.85
2018-03-02T19:01:03.582Z,65.50
2018-03-02T19:03:30.329Z,66.37
2018-03-02T19:05:57.166Z,64.00
2018-03-02T19:08:23.919Z,65.43
2018-03-02T19:10:50.696Z,67.37
2018-03-02T19:13:17.447Z,64.70
2018-03-02T19:15:44.445Z,76.40
2018-03-02T19:18:11.200Z,66.12
2018-03-02T19:20:38.069Z,63.50
2018-03-02T19:23:04.927Z,61.72
2018-03-02T19:25:31.733Z,67.32
2018-03-02T19:27:58.546Z,66.30
2018-03-02T19:30:25.317Z,64.60
2018-03-02T19:32:52.195Z,66.28
2018-03-02T19:35:19.071Z,64.68
2018-03-02T19:37:45.879Z,61.42
2018-03-02T19:40:12.788Z,61.85
2018-03-02T19:42:39.830Z,65.40
2018-03-02T19:45:06.769Z,65.45
2018-03-02T19:47:33.520Z,67.43
2018-03-02T19:50:00.245Z,65.72
2018-03-02T19:52:27.252Z,67.78
2018-03-02T19:54:54.383Z,75.12
2018-03-02T19:57:21.302Z,64.22
2018-03-02T19:59:48.065Z,68.68
2018-03-02T20:02:14.798Z,69.55
2018-03-02T20:04:41.561Z,69.43
2018-03-02T20:07:08.297Z,66.05
2018-03-02T20:09:35.310Z,63.60
2018-03-02T20:12:02.398Z,70.10
2018-03-02T20:14:29.442Z,70.37
2018-03-02T20:16:56.646Z,66.40
2018-03-02T20:19:23.941Z,69.55
2018-03-02T20:21:50.746Z,66.00
2018-03-02T20:24:17.763Z,66.65
2018-03-02T20:26:44.553Z,69.90
2018-03-02T20:29:11.322Z,67.18
2018-03-02T20:31:38.084Z,65.30
2018-03-02T20:34:04.838Z,68.45
2018-03-02T20:36:31.833Z,66.05
2018-03-02T20:38:58.778Z,67.90
2018-03-02T20:41:25.549Z,71.80
2018-03-02T20:43:52.287Z,67.53
2018-03-02T20:46:19.051Z,66.72
2018-03-02T20:48:45.781Z,67.82
2018-03-02T20:51:12.542Z,62.88
2018-03-02T20:53:40.582Z,68.60
2018-03-02T20:56:07.321Z,68.28
2018-03-02T20:58:34.101Z,66.62
2018-03-02T21:01:00.873Z,68.82
2018-03-02T21:03:27.641Z,74.55
2018-03-02T21:05:54.368Z,75.68
2018-03-02T21:08:21.097Z,75.30
2018-03-02T21:10:47.844Z,71.78
2018-03-02T21:13:14.574Z,69.03
2018-03-02T21:15:41.374Z,70.15
2018-03-02T21:18:08.126Z,71.45
2018-03-02T21:20:34.884Z,68.32
2018-03-02T21:23:01.694Z,69.90
2018-03-02T21:25:28.383Z,71.90
2018-03-02T21:27:55.167Z,70.55
2018-03-02T21:30:21.906Z,69.00
2018-03-02T21:32:48.757Z,64.87
2018-03-02T21:35:15.551Z,62.53
2018-03-02T21:37:42.349Z,65.62
2018-03-02T21:40:09.176Z,64.95
2018-03-02T21:42:35.924Z,56.35
2018-03-02T21:45:02.662Z,58.20
2018-03-02T21:47:29.436Z,59.25
2018-03-02T21:49:56.793Z,61.00
2018-03-02T21:52:23.556Z,62.33
2018-03-02T21:54:50.323Z,58.63
2018-03-02T21:57:17.039Z,60.80
2018-03-02T21:59:43.775Z,57.85
2018-03-02T22:02:10.547Z,61.03
2018-03-02T22:04:37.266Z,57.58
2018-03-02T22:07:04.008Z,57.17
2018-03-02T22:09:30.762Z,56.42
2018-03-02T22:11:57.485Z,55.70
2018-03-02T22:14:24.240Z,54.08
2018-03-02T22:16:51.064Z,58.78
2018-03-02T22:19:17.828Z,60.22
2018-03-02T22:21:44.588Z,61.60
2018-03-02T22:24:11.340Z,60.92
2018-03-02T22:26:38.088Z,54.42
2018-03-02T22:29:04.808Z,54.78
2018-03-02T22:31:31.537Z,55.67
2018-03-02T22:33:58.260Z,55.70
2018-03-02T22:36:24.993Z,59.00
2018-03-02T22:38:51.709Z,56.67
2018-03-02T22:41:18.469Z,55.83
2018-03-02T22:43:45.204Z,55.53
2018-03-02T22:46:11.946Z,53.30
2018-03-02T22:48:38.699Z,56.45
2018-03-02T22:51:05.428Z,60.25
2018-03-02T22:53:32.174Z,59.05
2018-03-02T22:55:58.923Z,55.63
2018-03-02T22:58:25.651Z,61.15
2018-03-02T23:00:52.398Z,60.22
2018-03-02T23:03:19.107Z,59.60
2018-03-02T23:05:45.876Z,63.03
2018-03-02T23:08:12.589Z,57.58
2018-03-02T23:10:39.328Z,58.40
2018-03-02T23:13:06.101Z,55.85
2018-03-02T23:15:32.825Z,58.20
2018-03-02T23:17:59.563Z,55.05
2018-03-02T23:20:26.286Z,57.42
2018-03-02T23:22:53.039Z,57.95
2018-03-02T23:25:19.791Z,56.42
2018-03-02T23:27:46.526Z,57.25
2018-03-02T23:30:13.256Z,57.55
2018-03-02T23:32:39.971Z,54.05
2018-03-02T23:35:06.738Z,60.22
2018-03-02T23:37:33.492Z,51.55
2018-03-02T23:40:00.195Z,53.53
2018-03-02T23:42:26.922Z,56.42
2018-03-02T23:44:53.629Z,48.58
2018-03-02T23:47:20.403Z,47.50
2018-03-02T23:49:47.146Z,51.97
2018-03-02T23:52:13.861Z,51.17
2018-03-02T23:54:40.623Z,52.80
2018-03-02T23:57:07.334Z,59.42
2018-03-02T23:59:34.067Z,58.60
